sensor_id;sensor_type;location;lat;lon;timestamp;temperature;humidity
23731;DHT22;12046;44.702;10.622;2023-04-06T00:01:50;6.10;62.90
23731;DHT22;12046;44.702;10.622;2023-04-06T00:04:16;6.10;62.90
23731;DHT22;12046;44.702;10.622;2023-04-06T00:06:42;6.10;63.00
23731;DHT22;12046;44.702;10.622;2023-04-06T00:09:07;6.10;63.10
23731;DHT22;12046;44.702;10.622;2023-04-06T00:11:33;6.10;63.10
23731;DHT22;12046;44.702;10.622;2023-04-06T00:13:59;6.10;63.00
23731;DHT22;12046;44.702;10.622;2023-04-06T00:16:25;6.10;63.00
23731;DHT22;12046;44.702;10.622;2023-04-06T00:18:51;6.10;62.90
23731;DHT22;12046;44.702;10.622;2023-04-06T00:21:17;6.10;62.90
23731;DHT22;12046;44.702;10.622;2023-04-06T00:23:43;6.10;62.90
23731;DHT22;12046;44.702;10.622;2023-04-06T00:26:09;6.10;63.10
23731;DHT22;12046;44.702;10.622;2023-04-06T00:28:37;6.00;63.10
23731;DHT22;12046;44.702;10.622;2023-04-06T00:31:02;6.00;63.10
23731;DHT22;12046;44.702;10.622;2023-04-06T00:33:28;6.00;63.10
23731;DHT22;12046;44.702;10.622;2023-04-06T00:35:54;6.00;63.20
23731;DHT22;12046;44.702;10.622;2023-04-06T00:38:20;6.00;63.70
23731;DHT22;12046;44.702;10.622;2023-04-06T00:40:46;6.00;63.90
23731;DHT22;12046;44.702;10.622;2023-04-06T00:43:12;6.10;64.00
23731;DHT22;12046;44.702;10.622;2023-04-06T00:45:39;6.10;63.90
23731;DHT22;12046;44.702;10.622;2023-04-06T00:48:06;6.20;63.80
23731;DHT22;12046;44.702;10.622;2023-04-06T00:50:32;6.20;63.70
23731;DHT22;12046;44.702;10.622;2023-04-06T00:52:59;6.20;63.70
23731;DHT22;12046;44.702;10.622;2023-04-06T00:55:26;6.30;63.70
23731;DHT22;12046;44.702;10.622;2023-04-06T00:57:52;6.30;63.70
23731;DHT22;12046;44.702;10.622;2023-04-06T01:00:18;6.30;63.60
23731;DHT22;12046;44.702;10.622;2023-04-06T01:02:44;6.30;63.40
23731;DHT22;12046;44.702;10.622;2023-04-06T01:05:11;6.40;63.40
23731;DHT22;12046;44.702;10.622;2023-04-06T01:07:37;6.40;63.40
23731;DHT22;12046;44.702;10.622;2023-04-06T01:10:03;6.40;63.50
23731;DHT22;12046;44.702;10.622;2023-04-06T01:12:30;6.40;63.70
23731;DHT22;12046;44.702;10.622;2023-04-06T01:14:56;6.40;63.70
23731;DHT22;12046;44.702;10.622;2023-04-06T01:17:22;6.40;63.80
23731;DHT22;12046;44.702;10.622;2023-04-06T01:19:48;6.40;63.90
23731;DHT22;12046;44.702;10.622;2023-04-06T01:22:18;6.40;64.10
23731;DHT22;12046;44.702;10.622;2023-04-06T01:24:44;6.30;64.20
23731;DHT22;12046;44.702;10.622;2023-04-06T01:27:10;6.30;64.30
23731;DHT22;12046;44.702;10.622;2023-04-06T01:29:36;6.30;64.40
23731;DHT22;12046;44.702;10.622;2023-04-06T01:32:02;6.30;64.50
23731;DHT22;12046;44.702;10.622;2023-04-06T01:34:28;6.30;64.70
23731;DHT22;12046;44.702;10.622;2023-04-06T01:36:54;6.20;65.00
23731;DHT22;12046;44.702;10.622;2023-04-06T01:39:20;6.20;65.30
23731;DHT22;12046;44.702;10.622;2023-04-06T01:41:46;6.20;65.50
23731;DHT22;12046;44.702;10.622;2023-04-06T01:44:18;6.20;65.60
23731;DHT22;12046;44.702;10.622;2023-04-06T01:46:44;6.10;65.60
23731;DHT22;12046;44.702;10.622;2023-04-06T01:49:12;6.00;65.80
23731;DHT22;12046;44.702;10.622;2023-04-06T01:51:37;6.00;65.80
23731;DHT22;12046;44.702;10.622;2023-04-06T01:54:03;6.00;66.00
23731;DHT22;12046;44.702;10.622;2023-04-06T01:56:35;5.90;66.10
23731;DHT22;12046;44.702;10.622;2023-04-06T01:59:00;5.80;66.20
23731;DHT22;12046;44.702;10.622;2023-04-06T02:01:26;5.80;66.40
23731;DHT22;12046;44.702;10.622;2023-04-06T02:03:52;5.80;66.50
23731;DHT22;12046;44.702;10.622;2023-04-06T02:06:21;5.80;66.70
23731;DHT22;12046;44.702;10.622;2023-04-06T02:08:47;5.70;66.80
23731;DHT22;12046;44.702;10.622;2023-04-06T02:11:13;5.70;67.00
23731;DHT22;12046;44.702;10.622;2023-04-06T02:13:40;5.70;67.30
23731;DHT22;12046;44.702;10.622;2023-04-06T02:16:09;5.70;67.60
23731;DHT22;12046;44.702;10.622;2023-04-06T02:18:35;5.70;67.90
23731;DHT22;12046;44.702;10.622;2023-04-06T02:21:01;5.70;68.10
23731;DHT22;12046;44.702;10.622;2023-04-06T02:23:29;5.70;68.40
23731;DHT22;12046;44.702;10.622;2023-04-06T02:25:55;5.70;68.50
23731;DHT22;12046;44.702;10.622;2023-04-06T02:28:23;5.70;68.60
23731;DHT22;12046;44.702;10.622;2023-04-06T02:30:49;5.70;68.70
23731;DHT22;12046;44.702;10.622;2023-04-06T02:33:15;5.60;68.90
23731;DHT22;12046;44.702;10.622;2023-04-06T02:35:41;5.60;69.00
23731;DHT22;12046;44.702;10.622;2023-04-06T02:38:06;5.60;69.10
23731;DHT22;12046;44.702;10.622;2023-04-06T02:40:32;5.50;69.10
23731;DHT22;12046;44.702;10.622;2023-04-06T02:42:58;5.50;69.20
23731;DHT22;12046;44.702;10.622;2023-04-06T02:45:24;5.40;69.30
23731;DHT22;12046;44.702;10.622;2023-04-06T02:47:49;5.40;69.40
23731;DHT22;12046;44.702;10.622;2023-04-06T02:50:16;5.40;69.50
23731;DHT22;12046;44.702;10.622;2023-04-06T02:52:41;5.40;69.60
23731;DHT22;12046;44.702;10.622;2023-04-06T02:55:07;5.30;69.60
23731;DHT22;12046;44.702;10.622;2023-04-06T02:57:34;5.30;69.80
23731;DHT22;12046;44.702;10.622;2023-04-06T03:00:00;5.30;70.10
23731;DHT22;12046;44.702;10.622;2023-04-06T03:02:25;5.30;70.40
23731;DHT22;12046;44.702;10.622;2023-04-06T03:04:51;5.30;70.60
23731;DHT22;12046;44.702;10.622;2023-04-06T03:07:17;5.20;70.50
23731;DHT22;12046;44.702;10.622;2023-04-06T03:09:42;5.20;70.60
23731;DHT22;12046;44.702;10.622;2023-04-06T03:12:08;5.10;70.50
23731;DHT22;12046;44.702;10.622;2023-04-06T03:14:34;5.10;70.70
23731;DHT22;12046;44.702;10.622;2023-04-06T03:17:00;5.00;70.80
23731;DHT22;12046;44.702;10.622;2023-04-06T03:19:26;4.90;71.00
23731;DHT22;12046;44.702;10.622;2023-04-06T03:21:52;4.90;71.20
23731;DHT22;12046;44.702;10.622;2023-04-06T03:24:18;4.80;71.20
23731;DHT22;12046;44.702;10.622;2023-04-06T03:26:43;4.80;71.40
23731;DHT22;12046;44.702;10.622;2023-04-06T03:29:09;4.70;71.40
23731;DHT22;12046;44.702;10.622;2023-04-06T03:31:35;4.70;71.60
23731;DHT22;12046;44.702;10.622;2023-04-06T03:34:01;4.60;71.60
23731;DHT22;12046;44.702;10.622;2023-04-06T03:36:27;4.60;71.70
23731;DHT22;12046;44.702;10.622;2023-04-06T03:38:52;4.50;72.00
23731;DHT22;12046;44.702;10.622;2023-04-06T03:41:19;4.50;72.20
23731;DHT22;12046;44.702;10.622;2023-04-06T03:43:45;4.40;72.30
23731;DHT22;12046;44.702;10.622;2023-04-06T03:46:11;4.30;72.40
23731;DHT22;12046;44.702;10.622;2023-04-06T03:48:37;4.20;72.70
23731;DHT22;12046;44.702;10.622;2023-04-06T03:51:03;4.10;72.90
23731;DHT22;12046;44.702;10.622;2023-04-06T03:53:29;4.10;73.10
23731;DHT22;12046;44.702;10.622;2023-04-06T03:55:55;4.10;73.20
23731;DHT22;12046;44.702;10.622;2023-04-06T03:58:20;4.10;73.40
23731;DHT22;12046;44.702;10.622;2023-04-06T04:00:46;4.00;73.30
23731;DHT22;12046;44.702;10.622;2023-04-06T04:03:12;4.00;73.30
23731;DHT22;12046;44.702;10.622;2023-04-06T04:05:38;4.00;73.30
23731;DHT22;12046;44.702;10.622;2023-04-06T04:08:03;4.00;73.30
23731;DHT22;12046;44.702;10.622;2023-04-06T04:10:29;4.00;73.30
23731;DHT22;12046;44.702;10.622;2023-04-06T04:12:55;4.00;73.40
23731;DHT22;12046;44.702;10.622;2023-04-06T04:15:21;4.00;73.40
23731;DHT22;12046;44.702;10.622;2023-04-06T04:17:47;4.00;73.50
23731;DHT22;12046;44.702;10.622;2023-04-06T04:20:15;4.00;73.50
23731;DHT22;12046;44.702;10.622;2023-04-06T04:22:41;4.00;73.40
23731;DHT22;12046;44.702;10.622;2023-04-06T04:25:08;4.00;73.40
23731;DHT22;12046;44.702;10.622;2023-04-06T04:27:34;4.10;73.50
23731;DHT22;12046;44.702;10.622;2023-04-06T04:29:59;4.10;73.50
23731;DHT22;12046;44.702;10.622;2023-04-06T04:32:25;4.10;73.60
23731;DHT22;12046;44.702;10.622;2023-04-06T04:34:53;4.10;73.60
23731;DHT22;12046;44.702;10.622;2023-04-06T04:37:19;4.10;73.70
23731;DHT22;12046;44.702;10.622;2023-04-06T04:39:45;4.20;73.90
23731;DHT22;12046;44.702;10.622;2023-04-06T04:42:14;4.20;74.20
23731;DHT22;12046;44.702;10.622;2023-04-06T04:44:40;4.30;74.50
23731;DHT22;12046;44.702;10.622;2023-04-06T04:47:05;4.30;74.80
23731;DHT22;12046;44.702;10.622;2023-04-06T04:49:37;4.40;75.20
23731;DHT22;12046;44.702;10.622;2023-04-06T04:52:06;4.40;75.40
23731;DHT22;12046;44.702;10.622;2023-04-06T04:54:35;4.30;75.60
23731;DHT22;12046;44.702;10.622;2023-04-06T04:57:00;4.40;76.10
23731;DHT22;12046;44.702;10.622;2023-04-06T04:59:29;4.40;76.40
23731;DHT22;12046;44.702;10.622;2023-04-06T05:01:58;4.40;76.40
23731;DHT22;12046;44.702;10.622;2023-04-06T05:04:28;4.30;76.30
23731;DHT22;12046;44.702;10.622;2023-04-06T05:07:08;4.40;76.10
23731;DHT22;12046;44.702;10.622;2023-04-06T05:09:39;4.40;75.80
23731;DHT22;12046;44.702;10.622;2023-04-06T05:12:05;4.50;75.70
23731;DHT22;12046;44.702;10.622;2023-04-06T05:14:33;4.50;75.80
23731;DHT22;12046;44.702;10.622;2023-04-06T05:17:02;4.60;75.90
23731;DHT22;12046;44.702;10.622;2023-04-06T05:19:28;4.60;75.80
23731;DHT22;12046;44.702;10.622;2023-04-06T05:21:56;4.70;75.90
23731;DHT22;12046;44.702;10.622;2023-04-06T05:24:22;4.80;75.90
23731;DHT22;12046;44.702;10.622;2023-04-06T05:26:51;4.80;75.80
23731;DHT22;12046;44.702;10.622;2023-04-06T05:29:16;4.90;76.00
23731;DHT22;12046;44.702;10.622;2023-04-06T05:31:46;4.90;76.10
23731;DHT22;12046;44.702;10.622;2023-04-06T05:34:12;5.00;76.20
23731;DHT22;12046;44.702;10.622;2023-04-06T05:36:48;5.10;76.30
23731;DHT22;12046;44.702;10.622;2023-04-06T05:39:14;5.10;76.20
23731;DHT22;12046;44.702;10.622;2023-04-06T05:41:48;5.30;76.20
23731;DHT22;12046;44.702;10.622;2023-04-06T05:44:14;5.40;76.10
23731;DHT22;12046;44.702;10.622;2023-04-06T05:46:40;5.40;76.00
23731;DHT22;12046;44.702;10.622;2023-04-06T05:49:09;5.60;75.90
23731;DHT22;12046;44.702;10.622;2023-04-06T05:51:35;5.60;75.80
23731;DHT22;12046;44.702;10.622;2023-04-06T05:54:00;5.70;75.60
23731;DHT22;12046;44.702;10.622;2023-04-06T05:56:26;5.80;75.50
23731;DHT22;12046;44.702;10.622;2023-04-06T05:58:52;5.90;76.00
23731;DHT22;12046;44.702;10.622;2023-04-06T06:01:18;6.10;75.30
23731;DHT22;12046;44.702;10.622;2023-04-06T06:03:44;6.20;75.20
23731;DHT22;12046;44.702;10.622;2023-04-06T06:06:14;6.30;75.10
23731;DHT22;12046;44.702;10.622;2023-04-06T06:08:40;6.40;74.90
23731;DHT22;12046;44.702;10.622;2023-04-06T06:11:09;6.50;74.70
23731;DHT22;12046;44.702;10.622;2023-04-06T06:13:35;6.70;74.50
23731;DHT22;12046;44.702;10.622;2023-04-06T06:16:01;6.80;74.30
23731;DHT22;12046;44.702;10.622;2023-04-06T06:18:32;6.90;74.10
23731;DHT22;12046;44.702;10.622;2023-04-06T06:20:59;7.00;73.80
23731;DHT22;12046;44.702;10.622;2023-04-06T06:23:27;7.10;73.50
23731;DHT22;12046;44.702;10.622;2023-04-06T06:25:53;7.20;73.10
23731;DHT22;12046;44.702;10.622;2023-04-06T06:28:25;7.40;72.80
23731;DHT22;12046;44.702;10.622;2023-04-06T06:30:53;7.50;72.00
23731;DHT22;12046;44.702;10.622;2023-04-06T06:33:19;7.60;71.30
23731;DHT22;12046;44.702;10.622;2023-04-06T06:35:48;7.70;70.90
23731;DHT22;12046;44.702;10.622;2023-04-06T06:38:16;7.80;70.50
23731;DHT22;12046;44.702;10.622;2023-04-06T06:40:43;8.00;70.20
23731;DHT22;12046;44.702;10.622;2023-04-06T06:43:08;8.00;69.80
23731;DHT22;12046;44.702;10.622;2023-04-06T06:45:35;8.20;69.40
23731;DHT22;12046;44.702;10.622;2023-04-06T06:48:01;8.30;69.00
23731;DHT22;12046;44.702;10.622;2023-04-06T06:50:30;8.50;68.70
23731;DHT22;12046;44.702;10.622;2023-04-06T06:52:56;8.60;68.20
23731;DHT22;12046;44.702;10.622;2023-04-06T06:55:22;8.70;67.80
23731;DHT22;12046;44.702;10.622;2023-04-06T06:57:50;8.90;67.40
23731;DHT22;12046;44.702;10.622;2023-04-06T07:00:16;9.00;66.80
23731;DHT22;12046;44.702;10.622;2023-04-06T07:02:45;9.10;66.50
23731;DHT22;12046;44.702;10.622;2023-04-06T07:05:11;9.30;66.10
23731;DHT22;12046;44.702;10.622;2023-04-06T07:07:52;9.40;65.60
23731;DHT22;12046;44.702;10.622;2023-04-06T07:10:19;9.50;65.50
23731;DHT22;12046;44.702;10.622;2023-04-06T07:12:44;9.60;65.40
23731;DHT22;12046;44.702;10.622;2023-04-06T07:15:14;9.60;65.10
23731;DHT22;12046;44.702;10.622;2023-04-06T07:17:43;9.80;64.90
23731;DHT22;12046;44.702;10.622;2023-04-06T07:20:16;9.90;64.60
23731;DHT22;12046;44.702;10.622;2023-04-06T07:22:45;10.00;64.40
23731;DHT22;12046;44.702;10.622;2023-04-06T07:25:22;10.10;64.30
23731;DHT22;12046;44.702;10.622;2023-04-06T07:27:50;10.20;64.30
23731;DHT22;12046;44.702;10.622;2023-04-06T07:30:18;10.30;64.20
23731;DHT22;12046;44.702;10.622;2023-04-06T07:32:48;10.40;64.10
23731;DHT22;12046;44.702;10.622;2023-04-06T07:35:14;10.50;64.10
23731;DHT22;12046;44.702;10.622;2023-04-06T07:37:43;10.60;64.10
23731;DHT22;12046;44.702;10.622;2023-04-06T07:40:09;10.70;64.00
23731;DHT22;12046;44.702;10.622;2023-04-06T07:42:38;10.80;63.90
23731;DHT22;12046;44.702;10.622;2023-04-06T07:45:07;11.00;63.20
23731;DHT22;12046;44.702;10.622;2023-04-06T07:47:49;11.10;62.80
23731;DHT22;12046;44.702;10.622;2023-04-06T07:50:49;11.20;62.50
23731;DHT22;12046;44.702;10.622;2023-04-06T07:53:41;11.40;62.20
23731;DHT22;12046;44.702;10.622;2023-04-06T07:56:07;11.60;61.80
23731;DHT22;12046;44.702;10.622;2023-04-06T07:58:32;11.70;61.50
23731;DHT22;12046;44.702;10.622;2023-04-06T08:00:58;11.90;61.00
23731;DHT22;12046;44.702;10.622;2023-04-06T08:03:24;12.00;60.40
23731;DHT22;12046;44.702;10.622;2023-04-06T08:05:52;12.10;60.20
23731;DHT22;12046;44.702;10.622;2023-04-06T08:08:18;12.30;60.00
23731;DHT22;12046;44.702;10.622;2023-04-06T08:10:45;12.40;59.40
23731;DHT22;12046;44.702;10.622;2023-04-06T08:13:10;12.50;59.20
23731;DHT22;12046;44.702;10.622;2023-04-06T08:15:36;12.60;59.30
23731;DHT22;12046;44.702;10.622;2023-04-06T08:18:02;12.70;59.50
23731;DHT22;12046;44.702;10.622;2023-04-06T08:20:28;12.90;59.80
23731;DHT22;12046;44.702;10.622;2023-04-06T08:22:54;13.00;60.00
23731;DHT22;12046;44.702;10.622;2023-04-06T08:25:20;13.10;60.00
23731;DHT22;12046;44.702;10.622;2023-04-06T08:27:46;13.20;59.40
23731;DHT22;12046;44.702;10.622;2023-04-06T08:30:11;13.30;58.40
23731;DHT22;12046;44.702;10.622;2023-04-06T08:32:37;13.40;57.50
23731;DHT22;12046;44.702;10.622;2023-04-06T08:35:04;13.40;57.50
23731;DHT22;12046;44.702;10.622;2023-04-06T08:37:29;13.40;57.00
23731;DHT22;12046;44.702;10.622;2023-04-06T08:39:55;13.40;57.30
23731;DHT22;12046;44.702;10.622;2023-04-06T08:42:25;13.40;57.40
23731;DHT22;12046;44.702;10.622;2023-04-06T08:44:51;13.50;57.00
23731;DHT22;12046;44.702;10.622;2023-04-06T08:47:18;13.70;56.40
23731;DHT22;12046;44.702;10.622;2023-04-06T08:49:45;13.80;54.80
23731;DHT22;12046;44.702;10.622;2023-04-06T08:52:11;13.80;54.90
23731;DHT22;12046;44.702;10.622;2023-04-06T08:54:38;13.80;55.40
23731;DHT22;12046;44.702;10.622;2023-04-06T08:57:05;13.90;56.10
23731;DHT22;12046;44.702;10.622;2023-04-06T08:59:33;14.00;56.30
23731;DHT22;12046;44.702;10.622;2023-04-06T09:02:04;14.10;56.10
23731;DHT22;12046;44.702;10.622;2023-04-06T09:04:33;14.30;55.80
23731;DHT22;12046;44.702;10.622;2023-04-06T09:06:59;14.40;55.50
23731;DHT22;12046;44.702;10.622;2023-04-06T09:09:25;14.50;55.60
23731;DHT22;12046;44.702;10.622;2023-04-06T09:11:52;14.60;55.60
23731;DHT22;12046;44.702;10.622;2023-04-06T09:14:36;14.70;55.60
23731;DHT22;12046;44.702;10.622;2023-04-06T09:17:03;14.90;55.30
23731;DHT22;12046;44.702;10.622;2023-04-06T09:19:29;15.00;55.20
23731;DHT22;12046;44.702;10.622;2023-04-06T09:22:05;15.20;55.00
23731;DHT22;12046;44.702;10.622;2023-04-06T09:24:45;15.50;54.10
23731;DHT22;12046;44.702;10.622;2023-04-06T09:27:12;15.60;53.50
23731;DHT22;12046;44.702;10.622;2023-04-06T09:29:38;15.80;52.80
23731;DHT22;12046;44.702;10.622;2023-04-06T09:32:08;15.90;52.40
23731;DHT22;12046;44.702;10.622;2023-04-06T09:34:37;16.00;52.00
23731;DHT22;12046;44.702;10.622;2023-04-06T09:37:16;16.10;51.10
23731;DHT22;12046;44.702;10.622;2023-04-06T09:39:43;16.30;50.80
23731;DHT22;12046;44.702;10.622;2023-04-06T09:42:11;16.50;50.50
23731;DHT22;12046;44.702;10.622;2023-04-06T09:44:37;16.70;50.40
23731;DHT22;12046;44.702;10.622;2023-04-06T09:47:06;17.00;50.30
23731;DHT22;12046;44.702;10.622;2023-04-06T09:49:33;17.20;49.50
23731;DHT22;12046;44.702;10.622;2023-04-06T09:52:02;17.50;49.30
23731;DHT22;12046;44.702;10.622;2023-04-06T09:54:30;17.80;48.70
23731;DHT22;12046;44.702;10.622;2023-04-06T09:57:01;18.00;48.50
23731;DHT22;12046;44.702;10.622;2023-04-06T10:02:11;18.30;47.60
23731;DHT22;12046;44.702;10.622;2023-04-06T10:04:49;18.40;47.80
23731;DHT22;12046;44.702;10.622;2023-04-06T10:07:16;18.40;48.00
23731;DHT22;12046;44.702;10.622;2023-04-06T10:09:45;18.40;47.40
23731;DHT22;12046;44.702;10.622;2023-04-06T10:12:12;18.60;47.50
23731;DHT22;12046;44.702;10.622;2023-04-06T10:14:39;18.60;47.60
23731;DHT22;12046;44.702;10.622;2023-04-06T10:17:06;18.80;47.40
23731;DHT22;12046;44.702;10.622;2023-04-06T10:22:09;19.00;47.00
23731;DHT22;12046;44.702;10.622;2023-04-06T10:24:35;19.00;46.90
23731;DHT22;12046;44.702;10.622;2023-04-06T10:27:02;19.10;46.80
23731;DHT22;12046;44.702;10.622;2023-04-06T10:29:40;19.10;46.70
23731;DHT22;12046;44.702;10.622;2023-04-06T10:32:07;19.20;46.20
23731;DHT22;12046;44.702;10.622;2023-04-06T10:34:36;19.10;45.70
23731;DHT22;12046;44.702;10.622;2023-04-06T10:37:14;19.10;45.90
23731;DHT22;12046;44.702;10.622;2023-04-06T10:40:17;19.00;45.70
23731;DHT22;12046;44.702;10.622;2023-04-06T10:42:43;18.90;45.60
23731;DHT22;12046;44.702;10.622;2023-04-06T10:45:27;18.90;45.80
23731;DHT22;12046;44.702;10.622;2023-04-06T10:47:56;18.90;46.20
23731;DHT22;12046;44.702;10.622;2023-04-06T10:50:22;18.90;46.30
23731;DHT22;12046;44.702;10.622;2023-04-06T10:53:09;19.00;46.10
23731;DHT22;12046;44.702;10.622;2023-04-06T10:55:39;19.10;46.30
23731;DHT22;12046;44.702;10.622;2023-04-06T10:58:08;19.00;45.80
23731;DHT22;12046;44.702;10.622;2023-04-06T11:00:35;19.00;45.90
23731;DHT22;12046;44.702;10.622;2023-04-06T11:03:01;19.00;46.00
23731;DHT22;12046;44.702;10.622;2023-04-06T11:05:28;18.90;45.70
23731;DHT22;12046;44.702;10.622;2023-04-06T11:07:54;18.80;45.70
23731;DHT22;12046;44.702;10.622;2023-04-06T11:10:25;18.80;45.70
23731;DHT22;12046;44.702;10.622;2023-04-06T11:12:55;18.70;45.70
23731;DHT22;12046;44.702;10.622;2023-04-06T11:15:21;18.70;45.70
23731;DHT22;12046;44.702;10.622;2023-04-06T11:17:47;18.70;45.70
23731;DHT22;12046;44.702;10.622;2023-04-06T11:20:15;18.80;45.90
23731;DHT22;12046;44.702;10.622;2023-04-06T11:22:59;18.80;45.60
23731;DHT22;12046;44.702;10.622;2023-04-06T11:25:25;18.90;45.80
23731;DHT22;12046;44.702;10.622;2023-04-06T11:27:55;19.00;46.00
23731;DHT22;12046;44.702;10.622;2023-04-06T11:30:21;19.10;46.00
23731;DHT22;12046;44.702;10.622;2023-04-06T11:32:47;19.20;45.80
23731;DHT22;12046;44.702;10.622;2023-04-06T11:35:23;19.30;45.80
23731;DHT22;12046;44.702;10.622;2023-04-06T11:37:52;19.40;45.60
23731;DHT22;12046;44.702;10.622;2023-04-06T11:40:22;19.40;45.50
23731;DHT22;12046;44.702;10.622;2023-04-06T11:42:55;19.40;45.50
23731;DHT22;12046;44.702;10.622;2023-04-06T11:45:21;19.50;45.50
23731;DHT22;12046;44.702;10.622;2023-04-06T11:47:56;19.60;45.40
23731;DHT22;12046;44.702;10.622;2023-04-06T11:50:23;19.60;45.50
23731;DHT22;12046;44.702;10.622;2023-04-06T11:52:58;19.70;45.10
23731;DHT22;12046;44.702;10.622;2023-04-06T11:55:26;19.80;45.10
23731;DHT22;12046;44.702;10.622;2023-04-06T11:57:51;19.80;45.00
23731;DHT22;12046;44.702;10.622;2023-04-06T12:00:18;19.70;44.20
23731;DHT22;12046;44.702;10.622;2023-04-06T12:02:49;19.30;44.50
23731;DHT22;12046;44.702;10.622;2023-04-06T12:05:15;18.90;45.10
23731;DHT22;12046;44.702;10.622;2023-04-06T12:07:41;18.80;45.30
23731;DHT22;12046;44.702;10.622;2023-04-06T12:10:07;18.70;45.50
23731;DHT22;12046;44.702;10.622;2023-04-06T12:12:33;18.80;45.60
23731;DHT22;12046;44.702;10.622;2023-04-06T12:15:00;18.80;45.50
23731;DHT22;12046;44.702;10.622;2023-04-06T12:17:26;18.80;45.20
23731;DHT22;12046;44.702;10.622;2023-04-06T12:19:52;18.80;45.40
23731;DHT22;12046;44.702;10.622;2023-04-06T12:22:18;18.90;46.30
23731;DHT22;12046;44.702;10.622;2023-04-06T12:24:44;19.00;45.70
23731;DHT22;12046;44.702;10.622;2023-04-06T12:27:10;19.10;45.60
23731;DHT22;12046;44.702;10.622;2023-04-06T12:29:37;19.30;45.10
23731;DHT22;12046;44.702;10.622;2023-04-06T12:32:03;19.20;45.00
23731;DHT22;12046;44.702;10.622;2023-04-06T12:34:29;19.20;45.30
23731;DHT22;12046;44.702;10.622;2023-04-06T12:36:55;19.20;45.20
23731;DHT22;12046;44.702;10.622;2023-04-06T12:39:21;19.20;45.30
23731;DHT22;12046;44.702;10.622;2023-04-06T12:41:48;19.30;45.50
23731;DHT22;12046;44.702;10.622;2023-04-06T12:44:14;19.40;45.30
23731;DHT22;12046;44.702;10.622;2023-04-06T12:46:40;19.50;45.00
23731;DHT22;12046;44.702;10.622;2023-04-06T12:49:06;19.60;44.60
23731;DHT22;12046;44.702;10.622;2023-04-06T12:51:32;19.40;44.10
23731;DHT22;12046;44.702;10.622;2023-04-06T12:53:58;19.20;44.10
23731;DHT22;12046;44.702;10.622;2023-04-06T12:56:24;19.10;44.60
23731;DHT22;12046;44.702;10.622;2023-04-06T12:58:51;19.10;45.00
23731;DHT22;12046;44.702;10.622;2023-04-06T13:01:17;19.20;45.30
23731;DHT22;12046;44.702;10.622;2023-04-06T13:03:43;19.40;45.40
23731;DHT22;12046;44.702;10.622;2023-04-06T13:06:10;19.50;45.40
23731;DHT22;12046;44.702;10.622;2023-04-06T13:08:37;19.70;45.30
23731;DHT22;12046;44.702;10.622;2023-04-06T13:11:03;20.00;45.20
23731;DHT22;12046;44.702;10.622;2023-04-06T13:13:30;20.10;45.10
23731;DHT22;12046;44.702;10.622;2023-04-06T13:16:01;20.20;45.00
23731;DHT22;12046;44.702;10.622;2023-04-06T13:18:28;20.30;44.90
23731;DHT22;12046;44.702;10.622;2023-04-06T13:20:55;20.40;44.90
23731;DHT22;12046;44.702;10.622;2023-04-06T13:23:22;20.50;44.90
23731;DHT22;12046;44.702;10.622;2023-04-06T13:25:56;20.60;44.90
23731;DHT22;12046;44.702;10.622;2023-04-06T13:28:22;20.70;44.90
23731;DHT22;12046;44.702;10.622;2023-04-06T13:30:48;20.80;44.70
23731;DHT22;12046;44.702;10.622;2023-04-06T13:33:14;20.80;44.20
23731;DHT22;12046;44.702;10.622;2023-04-06T13:35:44;20.90;44.30
23731;DHT22;12046;44.702;10.622;2023-04-06T13:38:11;20.80;44.10
23731;DHT22;12046;44.702;10.622;2023-04-06T13:40:40;20.80;44.30
23731;DHT22;12046;44.702;10.622;2023-04-06T13:43:06;20.90;44.20
23731;DHT22;12046;44.702;10.622;2023-04-06T13:45:32;20.90;44.20
23731;DHT22;12046;44.702;10.622;2023-04-06T13:47:58;20.90;44.30
23731;DHT22;12046;44.702;10.622;2023-04-06T13:50:29;20.90;44.20
23731;DHT22;12046;44.702;10.622;2023-04-06T13:52:55;21.00;44.00
23731;DHT22;12046;44.702;10.622;2023-04-06T13:55:21;21.00;44.10
23731;DHT22;12046;44.702;10.622;2023-04-06T13:57:50;21.00;44.10
23731;DHT22;12046;44.702;10.622;2023-04-06T14:00:16;21.00;44.10
23731;DHT22;12046;44.702;10.622;2023-04-06T14:02:41;21.10;44.00
23731;DHT22;12046;44.702;10.622;2023-04-06T14:05:08;20.90;43.20
23731;DHT22;12046;44.702;10.622;2023-04-06T14:07:34;20.60;43.40
23731;DHT22;12046;44.702;10.622;2023-04-06T14:09:59;20.50;43.80
23731;DHT22;12046;44.702;10.622;2023-04-06T14:12:25;20.30;44.00
23731;DHT22;12046;44.702;10.622;2023-04-06T14:14:52;20.30;44.20
23731;DHT22;12046;44.702;10.622;2023-04-06T14:17:18;20.30;44.40
23731;DHT22;12046;44.702;10.622;2023-04-06T14:19:44;20.40;44.60
23731;DHT22;12046;44.702;10.622;2023-04-06T14:22:10;20.50;44.70
23731;DHT22;12046;44.702;10.622;2023-04-06T14:24:36;20.50;44.80
23731;DHT22;12046;44.702;10.622;2023-04-06T14:27:02;20.60;44.80
23731;DHT22;12046;44.702;10.622;2023-04-06T14:29:28;20.70;44.60
23731;DHT22;12046;44.702;10.622;2023-04-06T14:31:54;20.70;44.50
23731;DHT22;12046;44.702;10.622;2023-04-06T14:34:28;20.70;44.00
23731;DHT22;12046;44.702;10.622;2023-04-06T14:36:54;20.70;43.90
23731;DHT22;12046;44.702;10.622;2023-04-06T14:39:21;20.50;43.70
23731;DHT22;12046;44.702;10.622;2023-04-06T14:41:47;20.30;43.80
23731;DHT22;12046;44.702;10.622;2023-04-06T14:44:14;20.10;44.20
23731;DHT22;12046;44.702;10.622;2023-04-06T14:46:40;19.90;44.60
23731;DHT22;12046;44.702;10.622;2023-04-06T14:49:06;19.90;44.90
23731;DHT22;12046;44.702;10.622;2023-04-06T14:51:34;19.90;45.10
23731;DHT22;12046;44.702;10.622;2023-04-06T14:54:01;20.00;45.10
23731;DHT22;12046;44.702;10.622;2023-04-06T14:56:28;20.10;45.10
23731;DHT22;12046;44.702;10.622;2023-04-06T14:59:00;20.10;45.10
23731;DHT22;12046;44.702;10.622;2023-04-06T15:01:29;20.10;45.20
23731;DHT22;12046;44.702;10.622;2023-04-06T15:03:55;20.20;45.30
23731;DHT22;12046;44.702;10.622;2023-04-06T15:06:21;20.20;45.30
23731;DHT22;12046;44.702;10.622;2023-04-06T15:08:48;20.20;45.30
23731;DHT22;12046;44.702;10.622;2023-04-06T15:11:14;20.20;45.10
23731;DHT22;12046;44.702;10.622;2023-04-06T15:13:40;20.20;44.80
23731;DHT22;12046;44.702;10.622;2023-04-06T15:16:07;20.10;44.70
23731;DHT22;12046;44.702;10.622;2023-04-06T15:18:35;20.10;44.90
23731;DHT22;12046;44.702;10.622;2023-04-06T15:21:01;20.00;45.00
23731;DHT22;12046;44.702;10.622;2023-04-06T15:23:27;20.10;45.00
23731;DHT22;12046;44.702;10.622;2023-04-06T15:25:57;20.10;45.00
23731;DHT22;12046;44.702;10.622;2023-04-06T15:28:23;20.00;45.00
23731;DHT22;12046;44.702;10.622;2023-04-06T15:30:50;20.00;45.00